Time;durP1;ratioP1;P1;durP2;ratioP2;P2;SDS_P1;SDS_P2;PMS_P1;PMS_P2;Temp;Humidity;BMP_temperature;BMP_pressure;BME280_temperature;BME280_humidity;BME280_pressure;Samples;Min_cycle;Max_cycle;Signal;HPM_P1;HPM_P2
2021/05/18 00:00:22;;;;;;;0.73;0.73;;;;;;;9.43;97.27;96359.78;5015869;28;20179;-67
2021/05/18 00:02:49;;;;;;;0.90;0.90;;;;;;;9.38;97.01;96364.91;5033485;28;20183;-68
2021/05/18 00:05:16;;;;;;;0.80;0.80;;;;;;;9.39;96.32;96356.84;5033822;28;20183;-68
2021/05/18 00:07:51;;;;;;;0.90;0.90;;;;;;;9.43;95.70;96365.03;5033100;28;21065;-67
2021/05/18 00:13:00;;;;;;;0.70;0.70;;;;;;;9.35;95.23;96360.16;5033599;28;20547;-68
2021/05/18 00:15:26;;;;;;;0.80;0.80;;;;;;;9.42;94.85;96366.84;5032381;28;20194;-67
2021/05/18 00:17:51;;;;;;;0.70;0.70;;;;;;;9.46;95.59;96373.22;5034092;28;20301;-68
2021/05/18 00:20:18;;;;;;;0.60;0.60;;;;;;;9.53;95.32;96371.25;5033843;28;20647;-67
2021/05/18 00:22:45;;;;;;;0.60;0.60;;;;;;;9.48;95.99;96378.22;5033006;28;20266;-67
2021/05/18 00:25:12;;;;;;;0.70;0.70;;;;;;;9.44;97.20;96371.84;5033684;28;20187;-68
2021/05/18 00:27:38;;;;;;;0.60;0.60;;;;;;;9.40;97.25;96383.81;5033062;28;20187;-67
2021/05/18 00:30:07;;;;;;;1.27;0.90;;;;;;;9.43;97.35;96368.44;5033977;28;20236;-68
2021/05/18 00:32:32;;;;;;;0.70;0.70;;;;;;;9.44;97.73;96377.09;5032568;28;20236;-68
2021/05/18 00:34:58;;;;;;;0.70;0.70;;;;;;;9.42;98.27;96377.31;5032973;28;20187;-68
2021/05/18 00:37:25;;;;;;;0.80;0.80;;;;;;;9.32;99.89;96376.28;5033516;28;20200;-67
2021/05/18 00:39:50;;;;;;;0.80;0.80;;;;;;;9.39;99.12;96369.94;5033111;28;20222;-67
2021/05/18 00:42:18;;;;;;;0.70;0.70;;;;;;;9.36;99.82;96378.22;5033734;28;20682;-68
2021/05/18 00:44:44;;;;;;;0.70;0.70;;;;;;;9.37;99.35;96379.81;5032695;28;20187;-68
2021/05/18 00:47:09;;;;;;;0.83;0.83;;;;;;;9.32;99.89;96376.28;5033546;28;20186;-68
2021/05/18 00:49:36;;;;;;;0.93;0.80;;;;;;;9.31;99.88;96374.69;5031946;28;20209;-68
2021/05/18 00:52:05;;;;;;;2.53;0.80;;;;;;;9.24;100.00;96381.88;5015636;28;20686;-68
2021/05/18 00:54:37;;;;;;;0.80;0.80;;;;;;;9.23;99.84;96386.31;5014863;28;20296;-67
2021/05/18 00:59:47;;;;;;;0.97;0.80;;;;;;;9.19;99.74;96391.19;5032560;28;20243;-68
2021/05/18 01:02:13;;;;;;;0.70;0.70;;;;;;;9.18;100.00;96392.22;5032818;28;20222;-68
2021/05/18 01:04:41;;;;;;;0.80;0.80;;;;;;;9.23;100.00;96394.16;5032060;28;20179;-68
2021/05/18 01:07:07;;;;;;;1.03;0.93;;;;;;;9.23;99.61;96402.00;5032348;28;20198;-68
2021/05/18 01:09:32;;;;;;;0.90;0.90;;;;;;;9.26;99.30;96393.69;5014776;28;20183;-67
2021/05/18 01:11:58;;;;;;;0.90;0.90;;;;;;;9.30;99.23;96402.69;5032448;28;20179;-68
2021/05/18 01:14:23;;;;;;;0.90;0.80;;;;;;;9.20;99.25;96407.66;5032995;28;20181;-68
2021/05/18 01:16:51;;;;;;;0.80;0.80;;;;;;;9.18;99.90;96402.69;5031836;28;20531;-68
2021/05/18 01:19:20;;;;;;;0.70;0.70;;;;;;;9.07;100.00;96407.91;5032679;28;20698;-68
2021/05/18 01:21:46;;;;;;;0.67;0.67;;;;;;;9.15;99.57;96403.13;5031887;28;20795;-68
2021/05/18 01:24:14;;;;;;;0.70;0.70;;;;;;;9.14;100.00;96400.72;5032350;28;20186;-68
2021/05/18 01:26:39;;;;;;;0.70;0.70;;;;;;;9.14;100.00;96411.19;5030937;28;20256;-68
2021/05/18 01:29:06;;;;;;;0.73;0.73;;;;;;;9.22;100.00;96410.06;5032355;28;20572;-68
2021/05/18 01:31:33;;;;;;;1.50;0.70;;;;;;;9.25;99.12;96407.00;5014040;28;20217;-68
2021/05/18 01:34:00;;;;;;;0.87;0.87;;;;;;;9.30;98.62;96407.13;5032510;28;20194;-68
2021/05/18 01:36:26;;;;;;;0.80;0.80;;;;;;;9.34;98.55;96416.09;5013945;28;20229;-68
2021/05/18 01:44:09;;;;;;;0.70;0.70;;;;;;;9.18;100.00;96422.81;5017630;28;20208;-68
2021/05/18 01:46:35;;;;;;;1.07;0.97;;;;;;;9.25;100.00;96413.00;5031396;28;20190;-68
2021/05/18 01:49:07;;;;;;;0.70;0.70;;;;;;;9.07;100.00;96420.97;5032248;28;20182;-68
2021/05/18 01:51:36;;;;;;;0.70;0.70;;;;;;;8.96;100.00;96411.28;5018030;28;20182;-68
2021/05/18 01:54:23;;;;;;;0.70;0.70;;;;;;;9.00;100.00;96418.47;5014379;28;20233;-67
2021/05/18 01:56:53;;;;;;;0.67;0.67;;;;;;;9.01;100.00;96414.03;5031341;28;20593;-68
2021/05/18 01:59:24;;;;;;;0.80;0.80;;;;;;;8.92;100.00;96407.53;5014449;28;20285;-67
2021/05/18 02:01:53;;;;;;;0.60;0.60;;;;;;;8.93;100.00;96396.84;5031276;28;20222;-67
2021/05/18 02:04:25;;;;;;;0.80;0.80;;;;;;;8.94;100.00;96403.69;5031862;28;20210;-68
2021/05/18 02:06:51;;;;;;;0.73;0.73;;;;;;;8.92;100.00;96400.47;5030404;28;20937;-67
2021/05/18 02:09:17;;;;;;;0.60;0.60;;;;;;;8.96;100.00;96412.09;5031820;28;20182;-68
2021/05/18 02:11:43;;;;;;;0.90;0.90;;;;;;;8.96;100.00;96413.91;5030974;28;20218;-67
2021/05/18 02:14:11;;;;;;;0.77;0.77;;;;;;;8.99;100.00;96421.28;5014438;28;20659;-68
2021/05/18 02:16:39;;;;;;;0.70;0.63;;;;;;;8.96;100.00;96426.97;5030808;28;20260;-67
2021/05/18 02:19:54;;;;;;;1.07;0.80;;;;;;;9.01;100.00;96424.47;5031184;28;20569;-67
2021/05/18 02:26:59;;;;;;;1.60;0.97;;;;;;;9.06;100.00;96424.59;5031898;28;20532;-68
2021/05/18 02:29:25;;;;;;;0.80;0.80;;;;;;;8.96;100.00;96432.22;5031680;28;20187;-67
2021/05/18 02:31:53;;;;;;;0.90;0.90;;;;;;;8.91;100.00;96434.69;5011975;28;20186;-67
2021/05/18 02:34:19;;;;;;;0.80;0.80;;;;;;;8.81;100.00;96430.00;5031116;28;20186;-67
2021/05/18 02:36:44;;;;;;;0.80;0.80;;;;;;;8.92;100.00;96424.00;5030360;28;20179;-67
2021/05/18 02:39:10;;;;;;;0.87;0.87;;;;;;;8.87;100.00;96429.09;5031250;28;20299;-67
2021/05/18 02:41:35;;;;;;;0.80;0.80;;;;;;;8.87;100.00;96425.69;5030504;28;20189;-67
2021/05/18 02:44:06;;;;;;;0.80;0.80;;;;;;;8.90;100.00;96428.69;5031591;28;20276;-67
2021/05/18 02:49:09;;;;;;;0.80;0.80;;;;;;;8.82;100.00;96436.03;5031533;28;20269;-65
2021/05/18 02:51:36;;;;;;;0.80;0.80;;;;;;;8.82;100.00;96441.25;5030176;28;20175;-65
2021/05/18 02:54:01;;;;;;;0.90;0.90;;;;;;;8.92;100.00;96438.88;5013825;28;20535;-65
2021/05/18 02:56:31;;;;;;;0.80;0.80;;;;;;;8.95;100.00;96444.47;5013342;28;20232;-66
2021/05/18 02:59:09;;;;;;;1.10;1.00;;;;;;;9.01;100.00;96450.63;5030984;28;20210;-65
2021/05/18 03:01:35;;;;;;;0.90;0.90;;;;;;;8.89;100.00;96445.38;5030338;28;20226;-65
2021/05/18 03:04:00;;;;;;;0.70;0.70;;;;;;;9.01;100.00;96445.41;5031103;28;20187;-65
2021/05/18 03:06:26;;;;;;;0.80;0.80;;;;;;;8.92;100.00;96442.28;5030615;28;20635;-65
2021/05/18 03:08:51;;;;;;;1.00;1.00;;;;;;;8.87;100.00;96439.56;5030577;28;20216;-66
2021/05/18 03:11:17;;;;;;;0.80;0.80;;;;;;;8.92;100.00;96446.72;5013718;28;20725;-65
2021/05/18 03:13:43;;;;;;;1.03;1.03;;;;;;;8.99;100.00;96447.44;5030264;28;20229;-65
2021/05/18 03:16:09;;;;;;;0.97;0.97;;;;;;;8.97;100.00;96434.56;5031062;28;20253;-65
2021/05/18 03:18:34;;;;;;;1.00;1.00;;;;;;;8.98;100.00;96438.78;5029837;28;20239;-65
2021/05/18 03:21:01;;;;;;;0.87;0.87;;;;;;;8.98;100.00;96438.00;5031038;28;20179;-65
2021/05/18 03:23:26;;;;;;;0.80;0.80;;;;;;;8.99;100.00;96431.75;5013710;28;20213;-65
2021/05/18 03:25:52;;;;;;;0.90;0.90;;;;;;;9.08;100.00;96435.63;5030363;28;20575;-65
2021/05/18 03:28:18;;;;;;;0.90;0.90;;;;;;;9.04;100.00;96444.94;5030937;28;20199;-65
2021/05/18 03:35:52;;;;;;;1.40;0.83;;;;;;;8.98;100.00;96440.59;5029874;28;20178;-65
2021/05/18 03:38:36;;;;;;;0.80;0.80;;;;;;;9.08;100.00;96444.25;5030756;28;20203;-65
2021/05/18 03:41:09;;;;;;;0.70;0.70;;;;;;;9.01;100.00;96448.00;5030995;28;20213;-65
2021/05/18 03:54:39;;;;;;;0.90;0.90;;;;;;;8.95;97.36;96452.31;5027194;28;20173;-65
2021/05/18 04:19:24;;;;;;;0.70;0.70;;;;;;;9.16;95.24;96477.94;5032951;28;20217;-66
2021/05/18 05:16:40;;;;;;;0.87;0.87;;;;;;;9.48;94.20;96530.72;5032292;28;20178;-66
2021/05/18 05:19:05;;;;;;;0.87;0.87;;;;;;;9.50;93.76;96533.94;5032593;28;20478;-66
2021/05/18 05:21:32;;;;;;;0.87;0.87;;;;;;;9.45;94.40;96538.25;5032693;28;20270;-66
2021/05/18 05:23:58;;;;;;;0.80;0.80;;;;;;;9.49;93.78;96540.19;5032468;28;20221;-66
2021/05/18 05:26:23;;;;;;;0.80;0.80;;;;;;;9.44;94.03;96547.91;5032185;28;20182;-66
2021/05/18 05:28:49;;;;;;;0.93;0.93;;;;;;;9.42;95.02;96554.38;5032006;28;20206;-66
2021/05/18 05:31:14;;;;;;;0.97;0.97;;;;;;;9.46;94.41;96556.34;5032460;28;20240;-67
2021/05/18 05:33:40;;;;;;;0.80;0.80;;;;;;;9.45;95.54;96559.16;5030892;28;20186;-67
2021/05/18 05:36:05;;;;;;;1.07;1.07;;;;;;;9.41;97.28;96561.44;5031975;28;20200;-67
2021/05/18 05:38:31;;;;;;;0.80;0.80;;;;;;;9.24;100.00;96554.47;5032437;28;20213;-68
2021/05/18 05:40:57;;;;;;;0.90;0.90;;;;;;;9.18;100.00;96556.16;5031268;28;20220;-68
2021/05/18 05:43:22;;;;;;;0.80;0.80;;;;;;;9.18;100.00;96554.34;5031231;28;20510;-67
2021/05/18 05:45:51;;;;;;;0.80;0.80;;;;;;;9.27;100.00;96554.00;5031297;28;20270;-68
2021/05/18 05:48:18;;;;;;;0.90;0.90;;;;;;;9.22;100.00;96551.25;5031983;28;20195;-68
2021/05/18 05:50:44;;;;;;;0.70;0.70;;;;;;;9.14;100.00;96555.78;5030907;28;20190;-68
2021/05/18 05:53:09;;;;;;;0.80;0.80;;;;;;;9.24;100.00;96557.88;5032318;28;20174;-66
2021/05/18 05:55:35;;;;;;;1.83;0.97;;;;;;;9.16;100.00;96556.38;5031138;28;20187;-68
2021/05/18 05:58:00;;;;;;;1.10;1.10;;;;;;;9.18;100.00;96564.00;5032025;28;20686;-68
2021/05/18 06:00:26;;;;;;;3.33;1.60;;;;;;;9.13;100.00;96561.25;5031040;28;20186;-68
2021/05/18 06:02:51;;;;;;;1.10;1.10;;;;;;;9.20;100.00;96564.56;5031008;28;20788;-68
2021/05/18 06:05:16;;;;;;;1.20;1.10;;;;;;;9.24;100.00;96570.16;5014086;28;20632;-67
2021/05/18 06:07:42;;;;;;;1.33;1.00;;;;;;;9.27;100.00;96570.50;5013014;28;20263;-64
2021/05/18 06:10:15;;;;;;;0.90;0.90;;;;;;;9.22;100.00;96574.78;5031230;28;20640;-65
2021/05/18 06:35:27;;;;;;;1.10;1.10;;;;;;;9.18;100.00;96584.91;5027253;28;20686;-64
2021/05/18 06:42:56;;;;;;;1.20;1.00;;;;;;;9.39;100.00;96591.44;5030757;28;20185;-64
2021/05/18 06:48:06;;;;;;;1.00;1.00;;;;;;;9.90;100.00;96606.56;5031257;28;20213;-65
2021/05/18 06:50:32;;;;;;;2.70;0.97;;;;;;;10.03;100.00;96601.09;5031715;28;20226;-64
2021/05/18 06:52:59;;;;;;;1.00;1.00;;;;;;;10.15;100.00;96611.56;5030524;28;20179;-65
2021/05/18 06:55:31;;;;;;;0.90;0.90;;;;;;;10.07;100.00;96610.13;5031369;28;20563;-65
2021/05/18 07:00:25;;;;;;;0.90;0.90;;;;;;;10.45;100.00;96603.63;5030279;28;20183;-64
2021/05/18 07:02:52;;;;;;;1.17;1.00;;;;;;;10.56;100.00;96626.41;5030341;28;20244;-64
2021/05/18 07:07:47;;;;;;;1.60;1.50;;;;;;;10.65;100.00;96625.81;5029761;28;20194;-64
2021/05/18 07:10:12;;;;;;;1.67;1.00;;;;;;;10.78;100.00;96630.81;5031276;28;20269;-64
2021/05/18 07:12:38;;;;;;;1.87;1.27;;;;;;;10.82;100.00;96631.13;5029989;28;20588;-64
2021/05/18 07:15:05;;;;;;;0.90;0.90;;;;;;;10.85;100.00;96625.44;5013301;28;20190;-64
2021/05/18 07:17:31;;;;;;;1.30;1.20;;;;;;;10.86;100.00;96624.41;5030870;28;20269;-65
2021/05/18 07:19:56;;;;;;;1.00;1.00;;;;;;;10.98;100.00;96627.78;5013470;28;20177;-65
2021/05/18 07:22:22;;;;;;;0.90;0.90;;;;;;;11.07;100.00;96628.22;5030558;28;20194;-64
2021/05/18 07:24:47;;;;;;;1.33;1.23;;;;;;;11.25;99.97;96631.47;5031639;28;20688;-64
2021/05/18 07:27:12;;;;;;;1.17;1.17;;;;;;;11.36;98.99;96621.97;5035183;28;20218;-64
2021/05/18 07:29:38;;;;;;;1.30;1.00;;;;;;;11.66;98.28;96632.19;5034083;28;20198;-64
2021/05/18 07:32:04;;;;;;;1.37;1.30;;;;;;;11.91;96.12;96626.59;5033916;28;20605;-64
2021/05/18 07:34:29;;;;;;;1.30;1.20;;;;;;;12.05;95.12;96628.66;5034651;28;20213;-64
2021/05/18 07:36:55;;;;;;;1.20;1.20;;;;;;;12.10;93.31;96622.69;5034020;28;20651;-64
2021/05/18 07:39:20;;;;;;;1.10;1.10;;;;;;;12.24;91.86;96631.03;5034673;28;20568;-63
2021/05/18 07:41:46;;;;;;;1.10;1.10;;;;;;;12.38;91.50;96632.28;5016197;28;20178;-66
2021/05/18 07:44:11;;;;;;;1.10;1.10;;;;;;;11.87;87.02;96622.88;5034655;28;20260;-65
2021/05/18 07:46:39;;;;;;;1.30;1.30;;;;;;;11.27;87.35;96623.34;5034491;28;20186;-64
2021/05/18 07:49:12;;;;;;;1.33;1.23;;;;;;;11.49;90.41;96624.28;5034944;28;20269;-63
2021/05/18 08:00:21;;;;;;;1.20;1.20;;;;;;;10.99;94.74;96615.47;5033055;28;20221;-67
2021/05/18 08:05:34;;;;;;;1.07;1.07;;;;;;;10.82;96.07;96624.06;5020219;28;20229;-67
2021/05/18 08:08:00;;;;;;;1.20;1.10;;;;;;;10.76;97.08;96619.75;5007073;28;20217;-66
2021/05/18 08:12:54;;;;;;;1.67;0.97;;;;;;;10.87;98.91;96625.22;5015467;28;20187;-67
2021/05/18 08:18:35;;;;;;;1.00;1.00;;;;;;;10.57;99.54;96612.28;5033331;28;20569;-67
2021/05/18 08:20:51;;;;;;;1.00;1.00;;;;;;;10.74;98.86;96618.41;5015942;28;20197;-67
2021/05/18 10:36:43;;;;;;;1.80;1.10;;;;;;;11.24;100.00;96555.63;5031728;28;20666;-66
2021/05/18 10:39:27;;;;;;;1.10;1.00;;;;;;;11.40;100.00;96548.81;5027307;28;20182;-66
2021/05/18 10:41:54;;;;;;;1.13;1.10;;;;;;;11.60;98.38;96549.94;5029899;28;20183;-66
2021/05/18 10:44:20;;;;;;;1.00;1.00;;;;;;;11.76;98.55;96548.34;5031390;28;20586;-66
2021/05/18 10:46:53;;;;;;;3.07;1.30;;;;;;;11.87;96.43;96544.84;5030138;28;20186;-66
2021/05/18 10:49:33;;;;;;;1.00;1.00;;;;;;;11.85;95.78;96538.25;5023880;28;20178;-66
2021/05/18 10:52:00;;;;;;;1.00;1.00;;;;;;;11.74;96.70;96531.28;5031241;28;20178;-66
2021/05/18 10:54:28;;;;;;;1.00;1.00;;;;;;;11.75;89.06;96540.75;5031658;28;20174;-66
2021/05/18 10:56:58;;;;;;;1.30;1.20;;;;;;;11.77;84.66;96533.41;5028323;28;20186;-66
2021/05/18 10:59:27;;;;;;;1.20;1.20;;;;;;;11.70;87.38;96530.13;5029800;28;20199;-65
2021/05/18 11:02:22;;;;;;;1.00;1.00;;;;;;;11.69;83.10;96534.59;5031478;28;20218;-66
2021/05/18 11:05:00;;;;;;;1.47;1.37;;;;;;;11.75;83.53;96546.78;5029907;28;20278;-66
2021/05/18 11:07:31;;;;;;;1.47;1.10;;;;;;;11.98;81.69;96530.81;5019834;28;20214;-66
2021/05/18 11:09:56;;;;;;;1.63;1.53;;;;;;;12.23;76.67;96540.09;5022247;28;20199;-66
2021/05/18 11:12:26;;;;;;;1.37;1.27;;;;;;;12.43;74.26;96543.78;5031197;28;20236;-65
2021/05/18 11:15:06;;;;;;;1.10;1.10;;;;;;;12.67;75.78;96544.34;5027630;28;20206;-66
2021/05/18 11:17:34;;;;;;;1.30;1.27;;;;;;;12.97;74.40;96532.59;5018912;28;20201;-65
2021/05/18 11:20:22;;;;;;;1.30;1.07;;;;;;;13.19;74.74;96543.88;5030162;28;20186;-66
2021/05/18 11:25:51;;;;;;;1.00;1.00;;;;;;;13.28;68.89;96530.03;5030475;28;20229;-66
2021/05/18 11:28:18;;;;;;;0.97;0.97;;;;;;;13.40;71.36;96526.44;5030966;28;20174;-65
2021/05/18 11:30:46;;;;;;;1.00;0.90;;;;;;;13.68;69.22;96526.13;5029831;28;20198;-65
2021/05/18 11:33:12;;;;;;;0.83;0.70;;;;;;;13.84;64.98;96527.84;5031476;28;20198;-65
2021/05/18 11:35:38;;;;;;;0.87;0.87;;;;;;;13.86;64.99;96523.13;5030794;28;20216;-65
2021/05/18 11:38:25;;;;;;;1.33;0.90;;;;;;;13.81;64.43;96528.34;5029560;28;20241;-65
2021/05/18 11:40:51;;;;;;;0.97;0.83;;;;;;;13.80;64.49;96529.41;5017085;28;20193;-65
2021/05/18 11:43:37;;;;;;;0.80;0.80;;;;;;;13.89;64.79;96533.13;5030789;28;20558;-65
2021/05/18 11:46:07;;;;;;;0.90;0.90;;;;;;;14.16;62.13;96531.19;5029635;28;20193;-65
2021/05/18 11:48:33;;;;;;;1.37;0.70;;;;;;;14.01;61.54;96536.38;5012285;28;20214;-65
2021/05/18 11:51:16;;;;;;;0.70;0.70;;;;;;;13.69;62.29;96541.69;5029462;28;20265;-65
2021/05/18 11:53:48;;;;;;;1.37;0.67;;;;;;;13.20;64.48;96548.91;5019172;28;20175;-65
2021/05/18 11:56:26;;;;;;;0.70;0.70;;;;;;;12.48;72.69;96558.84;5030241;28;20233;-65
2021/05/18 11:59:08;;;;;;;0.80;0.80;;;;;;;12.12;72.44;96562.81;5029332;28;20556;-65
2021/05/18 12:01:38;;;;;;;0.60;0.60;;;;;;;12.15;72.36;96557.06;5030576;28;20237;-66
2021/05/18 12:04:08;;;;;;;0.70;0.70;;;;;;;12.02;70.20;96555.59;5029788;28;20263;-65
2021/05/18 12:06:35;;;;;;;0.67;0.67;;;;;;;12.08;71.14;96549.38;5029095;28;20191;-65
2021/05/18 12:09:02;;;;;;;2.43;0.77;;;;;;;12.34;68.57;96547.09;5029945;28;20175;-65
2021/05/18 12:11:28;;;;;;;0.80;0.80;;;;;;;12.41;66.22;96537.19;5033197;28;20183;-65
2021/05/18 12:13:54;;;;;;;0.60;0.60;;;;;;;12.63;66.86;96526.69;5033494;28;20560;-65
2021/05/18 12:16:22;;;;;;;1.37;0.70;;;;;;;12.72;67.09;96518.09;5032962;28;20233;-65
2021/05/18 12:18:55;;;;;;;0.73;0.73;;;;;;;12.95;67.26;96516.25;5033166;28;20199;-65
2021/05/18 12:21:26;;;;;;;2.17;0.80;;;;;;;13.26;64.61;96511.03;5034611;28;20224;-65
2021/05/18 12:24:11;;;;;;;0.50;0.50;;;;;;;13.52;62.14;96512.06;5032916;28;20210;-65
2021/05/18 12:26:49;;;;;;;3.07;0.97;;;;;;;13.59;61.66;96506.59;5001041;28;20186;-65
2021/05/18 12:29:49;;;;;;;0.97;0.60;;;;;;;13.64;59.93;96498.72;5033137;28;20186;-66
2021/05/18 12:32:14;;;;;;;0.63;0.63;;;;;;;13.64;58.44;96502.16;5033278;28;20589;-65
2021/05/18 12:34:40;;;;;;;0.50;0.50;;;;;;;13.61;58.46;96499.22;5032616;28;20183;-65
2021/05/18 12:37:05;;;;;;;0.40;0.40;;;;;;;13.67;56.75;96506.09;5032120;28;20322;-65
2021/05/18 12:39:32;;;;;;;0.70;0.70;;;;;;;13.54;56.84;96503.94;5033362;28;20199;-65
2021/05/18 12:42:04;;;;;;;1.77;0.70;;;;;;;13.68;59.25;96505.06;5014720;28;20187;-65
2021/05/18 12:44:32;;;;;;;0.57;0.57;;;;;;;13.73;55.20;96498.00;5032820;28;20240;-65
2021/05/18 12:47:07;;;;;;;0.50;0.50;;;;;;;13.57;56.44;96498.94;5032835;28;20589;-65
2021/05/18 12:49:37;;;;;;;0.60;0.60;;;;;;;13.62;57.56;96495.53;5033604;28;20200;-65
2021/05/18 12:52:08;;;;;;;2.73;0.70;;;;;;;13.97;56.59;96492.34;5032858;28;20245;-65
2021/05/18 12:54:47;;;;;;;5.40;0.60;;;;;;;13.95;56.59;96497.06;5016717;28;20563;-65
2021/05/18 12:57:18;;;;;;;0.50;0.50;;;;;;;14.17;56.31;96492.44;5015267;28;20182;-65
2021/05/18 12:59:57;;;;;;;0.60;0.60;;;;;;;14.16;55.94;96504.84;5033528;28;20207;-65
2021/05/18 13:02:38;;;;;;;0.50;0.50;;;;;;;13.93;56.80;96504.47;5032599;28;20233;-65
2021/05/18 13:05:13;;;;;;;0.73;0.73;;;;;;;13.88;57.57;96504.41;5017529;28;20171;-65
2021/05/18 13:07:40;;;;;;;0.50;0.50;;;;;;;13.98;61.34;96515.81;5032536;28;20570;-65
2021/05/18 13:10:19;;;;;;;0.60;0.60;;;;;;;13.97;62.23;96500.25;5032638;28;20786;-65
2021/05/18 13:12:46;;;;;;;0.50;0.50;;;;;;;13.96;59.36;96506.56;5031533;28;20183;-66
2021/05/18 13:15:19;;;;;;;0.77;0.50;;;;;;;13.63;56.00;96497.13;5032350;28;20655;-65
2021/05/18 13:17:56;;;;;;;0.50;0.50;;;;;;;13.64;56.51;96496.88;5032885;28;20698;-65
2021/05/18 13:20:22;;;;;;;0.60;0.60;;;;;;;13.66;58.06;96505.31;5015271;28;20201;-65
2021/05/18 13:22:55;;;;;;;0.70;0.70;;;;;;;13.65;60.38;96511.63;5013484;28;20217;-65
2021/05/18 13:28:04;;;;;;;0.50;0.50;;;;;;;13.57;62.27;96519.22;5031330;28;20548;-66
2021/05/18 13:30:31;;;;;;;0.70;0.70;;;;;;;13.55;61.94;96521.28;5032322;28;20187;-65
2021/05/18 13:32:57;;;;;;;0.67;0.67;;;;;;;13.65;60.85;96516.13;5031910;28;20186;-65
2021/05/18 13:35:26;;;;;;;1.00;0.70;;;;;;;13.66;59.19;96502.69;5032497;28;20193;-65
2021/05/18 13:37:52;;;;;;;0.97;0.70;;;;;;;13.74;59.75;96502.22;5031540;28;20191;-65
2021/05/18 13:40:20;;;;;;;0.60;0.60;;;;;;;13.85;59.68;96500.44;5032095;28;20247;-65
2021/05/18 13:42:51;;;;;;;2.17;0.63;;;;;;;13.87;60.51;96505.47;5032572;28;20194;-65
2021/05/18 13:45:17;;;;;;;0.60;0.60;;;;;;;14.00;60.57;96495.25;5032235;28;20190;-66
2021/05/18 13:47:43;;;;;;;0.50;0.50;;;;;;;14.07;59.64;96498.47;5014245;28;20202;-65
2021/05/18 13:50:09;;;;;;;0.60;0.60;;;;;;;14.19;57.08;96487.72;5031488;28;20317;-65
2021/05/18 13:52:35;;;;;;;0.60;0.60;;;;;;;14.16;58.76;96490.84;5031893;28;20675;-66
2021/05/18 13:55:00;;;;;;;0.90;0.67;;;;;;;14.27;60.09;96481.94;5031180;28;20197;-66
2021/05/18 13:57:26;;;;;;;0.50;0.50;;;;;;;14.32;61.33;96473.28;5031991;28;20259;-66
2021/05/18 13:59:52;;;;;;;0.63;0.60;;;;;;;14.19;61.72;96471.91;5031160;28;20296;-66
2021/05/18 14:02:19;;;;;;;0.87;0.80;;;;;;;14.31;61.55;96471.69;5031504;28;20675;-66
2021/05/18 14:04:44;;;;;;;0.53;0.53;;;;;;;14.36;61.28;96484.91;5031706;28;20636;-65
2021/05/18 14:10:27;;;;;;;0.67;0.67;;;;;;;14.32;61.59;96494.38;4973139;28;20259;-65
2021/05/18 14:12:53;;;;;;;5.10;0.90;;;;;;;14.19;61.48;96500.91;5031261;28;20186;-66
2021/05/18 14:15:18;;;;;;;0.70;0.70;;;;;;;13.87;60.29;96503.63;5031589;28;20194;-65
2021/05/18 14:17:43;;;;;;;0.60;0.60;;;;;;;13.30;60.00;96503.47;5031194;28;20190;-65
2021/05/18 14:20:09;;;;;;;0.60;0.60;;;;;;;13.11;62.25;96505.63;5031404;28;20205;-65
2021/05/18 14:22:35;;;;;;;0.50;0.50;;;;;;;13.21;62.72;96510.19;5028109;28;20201;-65
2021/05/18 14:27:29;;;;;;;0.60;0.60;;;;;;;13.33;63.21;96501.09;5031411;28;20202;-65
2021/05/18 14:29:54;;;;;;;0.70;0.70;;;;;;;13.30;62.64;96498.19;5029353;28;20183;-65
2021/05/18 14:32:20;;;;;;;0.63;0.63;;;;;;;13.44;61.98;96496.72;5031371;28;20195;-64
2021/05/18 14:34:45;;;;;;;2.00;1.00;;;;;;;13.59;60.94;96501.31;5030476;28;20187;-65
2021/05/18 14:37:11;;;;;;;0.50;0.50;;;;;;;13.80;60.50;96504.88;5030893;28;20754;-64
2021/05/18 14:45:11;;;;;;;0.40;0.40;;;;;;;13.70;57.64;96493.25;5023308;28;20263;-65
2021/05/18 14:48:26;;;;;;;0.93;0.60;;;;;;;13.85;56.55;96489.91;5020101;28;20186;-64
2021/05/18 14:55:52;;;;;;;0.90;0.60;;;;;;;13.82;55.94;96487.75;5030019;28;20236;-65
2021/05/18 14:58:18;;;;;;;0.53;0.40;;;;;;;13.77;55.50;96490.38;5031166;28;20206;-65
2021/05/18 15:00:44;;;;;;;0.60;0.60;;;;;;;13.81;56.90;96485.41;5031156;28;20585;-65
2021/05/18 15:03:10;;;;;;;0.83;0.57;;;;;;;13.83;57.10;96492.00;5030340;28;20834;-65
2021/05/18 15:05:36;;;;;;;0.50;0.50;;;;;;;13.78;56.57;96484.06;5030840;28;20197;-65
2021/05/18 15:08:02;;;;;;;0.57;0.57;;;;;;;13.96;56.57;96486.28;5028431;28;20241;-65
2021/05/18 15:10:28;;;;;;;0.50;0.50;;;;;;;14.09;56.32;96487.69;5031046;28;20243;-65
2021/05/18 15:12:55;;;;;;;0.60;0.60;;;;;;;14.28;55.70;96482.75;5030044;28;20210;-66
2021/05/18 15:15:21;;;;;;;0.40;0.40;;;;;;;14.31;55.26;96483.03;5030990;28;20179;-65
2021/05/18 15:17:47;;;;;;;0.50;0.50;;;;;;;14.25;55.58;96481.44;5030769;28;20178;-65
2021/05/18 15:20:13;;;;;;;0.40;0.40;;;;;;;14.22;56.27;96479.28;5030120;28;20328;-65
2021/05/18 15:22:39;;;;;;;0.60;0.60;;;;;;;14.41;56.79;96479.69;5008690;28;20267;-66
2021/05/18 15:25:07;;;;;;;0.50;0.50;;;;;;;14.42;56.72;96489.19;5021058;28;20186;-65
2021/05/18 15:27:32;;;;;;;2.90;0.77;;;;;;;14.36;55.95;96484.91;5011149;28;20191;-65
2021/05/18 15:29:58;;;;;;;0.60;0.60;;;;;;;14.30;54.88;96483.28;5020271;28;20181;-66
2021/05/18 15:32:23;;;;;;;0.50;0.50;;;;;;;14.40;54.64;96478.88;5020654;28;20191;-65
2021/05/18 15:34:49;;;;;;;0.50;0.50;;;;;;;14.49;54.23;96484.44;5019831;28;20182;-65
2021/05/18 15:37:14;;;;;;;0.47;0.47;;;;;;;14.26;53.43;96479.59;5020348;28;20274;-66
2021/05/18 15:39:41;;;;;;;0.60;0.60;;;;;;;14.16;54.26;96472.41;5017058;28;20242;-66
2021/05/18 15:42:07;;;;;;;0.43;0.43;;;;;;;14.29;54.67;96481.69;5018082;28;20178;-65
2021/05/18 15:44:32;;;;;;;0.60;0.60;;;;;;;14.31;54.74;96477.78;5030869;28;20191;-66
2021/05/18 15:46:59;;;;;;;1.40;0.60;;;;;;;14.25;55.63;96480.63;5033473;28;20679;-66
2021/05/18 15:49:25;;;;;;;1.00;0.57;;;;;;;14.25;55.64;96480.63;5034602;28;20232;-64
2021/05/18 15:51:50;;;;;;;0.67;0.67;;;;;;;14.22;55.75;96475.88;5033606;28;20667;-65
2021/05/18 15:54:16;;;;;;;1.70;0.57;;;;;;;14.25;55.32;96478.78;5033312;28;20179;-66
2021/05/18 15:56:42;;;;;;;0.60;0.60;;;;;;;14.20;56.06;96484.06;5034132;28;20626;-65
2021/05/18 15:59:07;;;;;;;0.63;0.60;;;;;;;14.16;56.22;96475.84;5032756;28;20244;-66
2021/05/18 16:01:33;;;;;;;0.57;0.50;;;;;;;14.39;55.41;96468.59;5016016;28;20242;-65
2021/05/18 16:03:58;;;;;;;0.50;0.50;;;;;;;14.41;55.18;96471.78;5033644;28;20193;-66
2021/05/18 16:06:23;;;;;;;0.67;0.67;;;;;;;14.20;56.72;96462.97;5032566;28;20191;-66
2021/05/18 16:11:14;;;;;;;0.50;0.50;;;;;;;14.18;55.67;96470.31;5033481;28;20190;-65
2021/05/18 16:13:41;;;;;;;0.50;0.50;;;;;;;14.21;55.75;96471.66;5016276;28;20182;-66
2021/05/18 16:16:08;;;;;;;0.50;0.50;;;;;;;14.23;56.54;96472.19;5032727;28;20209;-67
2021/05/18 16:18:34;;;;;;;1.13;0.60;;;;;;;13.99;56.02;96482.34;5033625;28;20685;-66
2021/05/18 16:21:00;;;;;;;0.50;0.50;;;;;;;13.92;56.75;96489.69;5015510;28;20190;-67
2021/05/18 16:23:27;;;;;;;0.80;0.80;;;;;;;13.38;61.98;96510.88;5033375;28;20564;-66
2021/05/18 16:25:56;;;;;;;0.90;0.90;;;;;;;11.76;73.94;96505.56;5032819;28;20178;-67
2021/05/18 16:28:22;;;;;;;1.30;1.20;;;;;;;9.42;82.37;96508.09;5033347;28;20232;-74
2021/05/18 16:30:49;;;;;;;5.70;1.13;;;;;;;8.56;95.33;96507.72;5033707;28;20186;-67
2021/05/18 16:33:14;;;;;;;1.50;1.30;;;;;;;8.40;99.83;96503.91;5033072;28;20186;-67
2021/05/18 16:35:40;;;;;;;1.20;1.20;;;;;;;8.31;100.00;96505.22;5033082;28;20183;-67
2021/05/18 16:38:06;;;;;;;1.50;1.33;;;;;;;8.56;100.00;96499.91;5032300;28;20187;-67
2021/05/18 16:40:31;;;;;;;0.90;0.90;;;;;;;8.85;100.00;96503.53;5032779;28;20196;-67
2021/05/18 16:42:57;;;;;;;1.10;1.10;;;;;;;8.99;100.00;96499.69;5032158;28;20202;-67
2021/05/18 16:45:22;;;;;;;1.30;1.30;;;;;;;9.29;100.00;96507.50;5033401;28;20194;-66
2021/05/18 16:47:48;;;;;;;1.40;1.30;;;;;;;9.45;100.00;96504.22;5032668;28;20182;-67
2021/05/18 16:50:14;;;;;;;1.20;1.10;;;;;;;9.72;100.00;96502.78;5032176;28;20181;-67
2021/05/18 16:52:40;;;;;;;1.70;1.20;;;;;;;9.86;100.00;96493.66;5033095;28;20182;-65
2021/05/18 16:55:07;;;;;;;1.30;1.30;;;;;;;10.05;100.00;96496.94;5032561;28;20537;-67
2021/05/18 16:57:33;;;;;;;1.80;1.13;;;;;;;10.15;100.00;96498.97;5032829;28;20289;-66
2021/05/18 16:59:58;;;;;;;1.30;1.20;;;;;;;10.19;100.00;96508.00;5031836;28;20305;-66